Terminal Aerodrome Forecast
Issued by NWS

Home | Current Version | Previous Version | Text Only | Print | Product List | Glossary On
Versions: 1 2 3 4 5 6 7 8 9 10 11 12 13 14 15 16 17 18 19 20 21
000
FTUS44 KBMX 230537
TAFEET
TAF
KEET 230537Z 2306/2406 19012G18KT 5SM RA BKN015 OVC050
     FM231000 16010KT P6SM BKN015 OVC025
     FM231700 19015G20KT P6SM OVC035
     FM232000 20015G20KT 4SM SHRA BKN025 PROB30 2320/2324 2SM TSRA
      BKN025CB
     FM240000 22012KT P6SM VCSH BKN025=

USA.gov is the U.S. government's official web portal to all federal, state and local government web resources and services.